createdAt,value
2023-07-05T00:00:48.934Z,24.49
2023-07-05T00:03:16.001Z,24.52
2023-07-05T00:05:43.913Z,24.28
2023-07-05T00:08:10.993Z,23.98
2023-07-05T00:10:38.260Z,23.66
2023-07-05T00:13:05.530Z,23.34
2023-07-05T00:15:32.823Z,23.78
2023-07-05T00:18:00.228Z,24.31
2023-07-05T00:20:27.713Z,24.34
2023-07-05T00:22:54.726Z,24.13
2023-07-05T00:25:21.829Z,23.83
2023-07-05T00:27:49.439Z,23.53
2023-07-05T00:30:17.897Z,23.23
2023-07-05T00:32:45.245Z,23.70
2023-07-05T00:35:12.574Z,24.24
2023-07-05T00:37:39.652Z,24.27
2023-07-05T00:40:07.765Z,24.07
2023-07-05T00:42:35.281Z,23.81
2023-07-05T00:45:28.038Z,23.55
2023-07-05T00:47:55.038Z,23.26
2023-07-05T00:50:24.568Z,23.87
2023-07-05T00:52:51.590Z,24.31
2023-07-05T00:55:18.692Z,24.27
2023-07-05T00:57:45.735Z,24.02
2023-07-05T01:00:17.152Z,23.74
2023-07-05T01:02:46.523Z,23.44
2023-07-05T01:05:13.886Z,23.13
2023-07-05T01:07:41.451Z,23.62
2023-07-05T01:10:16.533Z,24.18
2023-07-05T01:12:46.634Z,24.20
2023-07-05T01:15:26.809Z,23.99
2023-07-05T01:17:53.922Z,23.69
2023-07-05T01:20:45.716Z,23.40
2023-07-05T01:23:31.197Z,23.11
2023-07-05T01:26:17.139Z,23.82
2023-07-05T01:28:49.897Z,24.25
2023-07-05T01:31:37.283Z,24.15
2023-07-05T01:34:05.340Z,23.84
2023-07-05T01:36:32.900Z,23.54
2023-07-05T01:39:00.018Z,23.21
2023-07-05T01:41:27.084Z,23.59
2023-07-05T01:43:54.208Z,24.10
2023-07-05T01:46:28.553Z,24.11
2023-07-05T01:49:09.595Z,23.85
2023-07-05T01:51:44.267Z,23.54
2023-07-05T01:54:18.040Z,23.19
2023-07-05T01:57:03.845Z,22.88
2023-07-05T01:59:34.268Z,23.48
2023-07-05T02:02:01.472Z,23.97
2023-07-05T02:04:28.665Z,23.99
2023-07-05T02:06:56.911Z,23.77
2023-07-05T02:09:24.236Z,23.51
2023-07-05T02:11:51.324Z,23.25
2023-07-05T02:14:18.439Z,22.98
2023-07-05T02:16:45.517Z,23.45
2023-07-05T02:19:12.616Z,24.01
2023-07-05T02:21:40.127Z,24.05
2023-07-05T02:24:07.162Z,23.84
2023-07-05T02:26:35.148Z,23.56
2023-07-05T02:29:02.272Z,23.29
2023-07-05T02:31:30.413Z,22.99
2023-07-05T02:33:57.755Z,23.46
2023-07-05T02:36:25.988Z,23.99
2023-07-05T02:38:55.058Z,23.99
2023-07-05T02:41:22.317Z,23.76
2023-07-05T02:43:49.375Z,23.50
2023-07-05T02:46:16.394Z,23.24
2023-07-05T02:48:43.636Z,22.97
2023-07-05T02:51:12.592Z,23.45
2023-07-05T02:53:39.875Z,24.00
2023-07-05T02:56:07.416Z,24.00
2023-07-05T02:58:35.073Z,23.78
2023-07-05T03:01:02.195Z,23.53
2023-07-05T03:03:29.746Z,23.27
2023-07-05T03:05:58.090Z,23.00
2023-07-05T03:08:27.131Z,23.49
2023-07-05T03:11:00.929Z,24.02
2023-07-05T03:13:29.994Z,24.05
2023-07-05T03:15:58.380Z,23.85
2023-07-05T03:18:26.874Z,23.56
2023-07-05T03:20:53.988Z,23.28
2023-07-05T03:23:21.753Z,23.01
2023-07-05T03:25:58.457Z,23.52
2023-07-05T03:28:26.562Z,24.11
2023-07-05T03:31:17.262Z,24.13
2023-07-05T03:33:44.434Z,23.86
2023-07-05T03:36:16.252Z,23.56
2023-07-05T03:38:43.554Z,23.23
2023-07-05T03:41:14.266Z,23.62
2023-07-05T03:43:41.944Z,24.11
2023-07-05T03:46:11.286Z,24.08
2023-07-05T03:48:40.960Z,23.86
2023-07-05T03:51:08.115Z,23.61
2023-07-05T03:53:35.424Z,23.35
2023-07-05T03:56:04.260Z,23.72
2023-07-05T03:58:31.665Z,24.22
2023-07-05T04:01:09.625Z,24.25
2023-07-05T04:03:36.698Z,24.06
2023-07-05T04:06:03.987Z,23.82
2023-07-05T04:08:31.482Z,23.54
2023-07-05T04:10:58.703Z,23.92
2023-07-05T04:13:25.848Z,24.41
2023-07-05T04:16:00.579Z,24.41
2023-07-05T04:18:28.931Z,24.18
2023-07-05T04:20:56.511Z,23.90
2023-07-05T04:23:24.230Z,23.62
2023-07-05T04:26:04.489Z,23.35
2023-07-05T04:28:32.413Z,23.91
2023-07-05T04:31:00.173Z,24.43
2023-07-05T04:33:28.068Z,24.45
2023-07-05T04:35:59.069Z,24.24
2023-07-05T04:38:26.873Z,23.96
2023-07-05T04:40:54.915Z,23.72
2023-07-05T04:43:23.014Z,23.49
2023-07-05T04:45:51.317Z,24.04
2023-07-05T04:48:18.911Z,24.65
2023-07-05T04:50:48.737Z,24.73
2023-07-05T04:53:16.377Z,24.56
2023-07-05T04:55:50.843Z,24.31
2023-07-05T04:58:18.419Z,24.09
2023-07-05T05:00:50.767Z,23.88
2023-07-05T05:03:22.219Z,24.45
2023-07-05T05:05:52.600Z,25.02
2023-07-05T05:08:21.540Z,25.07
2023-07-05T05:10:54.284Z,24.88
2023-07-05T05:13:23.758Z,24.64
2023-07-05T05:15:51.250Z,24.42
2023-07-05T05:18:18.777Z,24.20
2023-07-05T05:20:45.872Z,24.71
2023-07-05T05:23:13.626Z,25.30
2023-07-05T05:25:44.123Z,25.39
2023-07-05T05:28:12.245Z,25.22
2023-07-05T05:32:36.554Z,24.63
2023-07-05T05:35:04.165Z,24.67
2023-07-05T05:37:31.327Z,24.55
2023-07-05T05:39:58.439Z,25.16
2023-07-05T05:42:25.696Z,25.80
2023-07-05T05:44:52.939Z,25.89
2023-07-05T05:47:20.231Z,25.71
2023-07-05T05:49:47.304Z,25.51
2023-07-05T05:52:14.430Z,25.32
2023-07-05T05:54:41.595Z,25.12
2023-07-05T05:57:09.221Z,25.75
2023-07-05T05:59:36.408Z,26.41
2023-07-05T06:02:03.454Z,26.51
2023-07-05T06:04:30.669Z,26.40
2023-07-05T06:06:57.719Z,26.19
2023-07-05T06:09:27.650Z,26.03
2023-07-05T06:12:00.100Z,25.91
2023-07-05T06:14:30.957Z,25.83
2023-07-05T06:16:59.257Z,26.52
2023-07-05T06:19:26.857Z,27.19
2023-07-05T06:21:53.844Z,27.30
2023-07-05T06:24:22.289Z,27.15
2023-07-05T06:26:49.875Z,26.92
2023-07-05T06:29:17.302Z,26.75
2023-07-05T06:31:45.791Z,26.53
2023-07-05T06:34:12.880Z,26.35
2023-07-05T06:36:41.472Z,26.16
2023-07-05T06:39:08.757Z,26.75
2023-07-05T06:41:36.031Z,27.40
2023-07-05T06:44:05.344Z,27.56
2023-07-05T06:46:33.151Z,27.51
2023-07-05T06:49:00.222Z,27.52
2023-07-05T06:51:27.784Z,27.65
2023-07-05T06:53:54.896Z,27.74
2023-07-05T06:56:22.106Z,27.90
2023-07-05T06:58:49.432Z,28.15
2023-07-05T07:01:16.597Z,28.93
2023-07-05T07:03:44.721Z,29.63
2023-07-05T07:06:12.118Z,29.82
2023-07-05T07:08:40.769Z,29.78
2023-07-05T07:11:08.632Z,29.60
2023-07-05T07:13:38.472Z,29.33
2023-07-05T07:16:07.651Z,29.06
2023-07-05T07:18:37.781Z,28.82
2023-07-05T07:21:10.503Z,28.64
2023-07-05T07:23:38.936Z,28.54
2023-07-05T07:26:08.098Z,28.48
2023-07-05T07:28:35.363Z,28.42
2023-07-05T07:31:13.156Z,28.44
2023-07-05T07:33:40.315Z,28.69
2023-07-05T07:36:09.684Z,28.99
2023-07-05T07:38:36.717Z,29.27
2023-07-05T07:41:03.814Z,29.47
2023-07-05T07:43:31.168Z,29.72
2023-07-05T07:45:58.349Z,29.98
2023-07-05T07:48:25.490Z,30.22
2023-07-05T07:50:52.643Z,30.43
2023-07-05T07:53:19.829Z,30.56
2023-07-05T07:55:47.001Z,30.67
2023-07-05T07:58:14.017Z,30.78
2023-07-05T08:00:41.315Z,30.92
2023-07-05T08:03:12.725Z,31.00
2023-07-05T08:05:40.720Z,31.06
2023-07-05T08:08:08.450Z,31.14
2023-07-05T08:10:35.885Z,31.21
2023-07-05T08:13:03.012Z,31.31
2023-07-05T08:15:30.196Z,31.49
2023-07-05T08:17:57.451Z,31.65
2023-07-05T08:20:24.674Z,31.73
2023-07-05T08:23:06.597Z,31.63
2023-07-05T08:25:35.365Z,31.52
2023-07-05T08:28:02.416Z,31.45
2023-07-05T08:30:29.887Z,31.44
2023-07-05T08:32:59.034Z,31.32
2023-07-05T08:35:27.296Z,31.17
2023-07-05T08:37:54.376Z,31.10
2023-07-05T08:40:21.429Z,31.11
2023-07-05T08:42:56.433Z,31.17
2023-07-05T08:45:27.844Z,31.25
2023-07-05T08:47:57.057Z,31.38
2023-07-05T08:50:32.865Z,31.47
2023-07-05T08:53:21.801Z,31.55
2023-07-05T08:55:53.905Z,31.52
2023-07-05T08:58:23.625Z,31.40
2023-07-05T09:00:56.038Z,31.35
2023-07-05T09:03:24.099Z,31.35
2023-07-05T09:05:55.629Z,31.28
2023-07-05T09:08:35.967Z,31.18
2023-07-05T09:11:04.940Z,31.06
2023-07-05T09:13:32.906Z,30.96
2023-07-05T09:16:26.546Z,30.82
2023-07-05T09:18:56.772Z,30.61
2023-07-05T09:21:32.929Z,30.40
2023-07-05T09:24:25.697Z,30.37
2023-07-05T10:54:33.319Z,28.87
2023-07-05T10:57:21.837Z,29.72
2023-07-05T10:59:57.546Z,29.92
2023-07-05T11:02:27.650Z,30.05
2023-07-05T11:04:55.148Z,30.27
2023-07-05T11:07:22.247Z,30.48
2023-07-05T11:09:49.416Z,30.60
2023-07-05T11:12:21.897Z,30.85
2023-07-05T11:14:49.534Z,31.24
2023-07-05T11:17:39.983Z,31.67
2023-07-05T11:20:27.256Z,32.03
2023-07-05T11:22:54.371Z,32.35
2023-07-05T11:25:21.483Z,32.26
2023-07-05T11:27:55.721Z,32.00
2023-07-05T11:30:45.966Z,31.80
2023-07-05T11:33:17.456Z,31.73
2023-07-05T11:35:55.043Z,31.58
2023-07-05T11:38:37.510Z,31.43
2023-07-05T11:41:06.337Z,31.44
2023-07-05T11:43:43.561Z,31.51
2023-07-05T11:46:42.659Z,31.35
2023-07-05T11:49:16.813Z,31.23
2023-07-05T11:51:43.909Z,31.40
2023-07-05T11:54:11.053Z,31.58
2023-07-05T11:56:38.740Z,31.56
2023-07-05T11:59:08.087Z,31.53
2023-07-05T12:01:38.845Z,31.64
2023-07-05T12:04:09.981Z,31.53
2023-07-05T12:06:42.447Z,31.48
2023-07-05T12:09:15.888Z,31.40
2023-07-05T12:11:43.884Z,31.26
2023-07-05T12:14:16.630Z,31.20
2023-07-05T12:16:44.138Z,31.13
2023-07-05T12:19:31.675Z,30.94
2023-07-05T12:22:02.021Z,30.71
2023-07-05T12:24:30.348Z,30.55
2023-07-05T12:26:57.903Z,30.46
2023-07-05T12:29:26.670Z,30.43
2023-07-05T12:32:04.439Z,30.37
2023-07-05T12:34:31.567Z,30.25
2023-07-05T12:37:00.128Z,30.11
2023-07-05T12:39:27.134Z,29.95
2023-07-05T12:42:04.012Z,29.87
2023-07-05T12:44:32.161Z,29.77
2023-07-05T12:47:13.067Z,29.74
2023-07-05T12:49:40.845Z,29.74
2023-07-05T12:52:19.686Z,29.77
2023-07-05T12:54:47.485Z,29.86
2023-07-05T12:57:22.942Z,29.96
2023-07-05T13:00:04.746Z,30.02
2023-07-05T13:02:35.088Z,29.96
2023-07-05T13:05:04.095Z,29.89
2023-07-05T13:07:33.968Z,29.88
2023-07-05T13:10:04.022Z,29.85
2023-07-05T13:13:33.793Z,29.89
2023-07-05T13:16:21.266Z,30.24
2023-07-05T13:19:08.746Z,30.44
2023-07-05T13:21:39.948Z,30.47
2023-07-05T13:24:09.634Z,30.35
2023-07-05T13:26:38.372Z,30.22
2023-07-05T13:29:17.491Z,30.10
2023-07-05T13:31:49.219Z,30.05
2023-07-05T13:34:16.869Z,29.97
2023-07-05T13:36:45.076Z,30.00
2023-07-05T13:39:16.334Z,30.09
2023-07-05T13:41:44.573Z,30.10
2023-07-05T13:44:12.980Z,30.12
2023-07-05T13:46:40.348Z,30.13
2023-07-05T13:49:10.581Z,30.05
2023-07-05T13:51:43.520Z,29.94
2023-07-05T13:54:11.891Z,29.82
2023-07-05T13:56:39.141Z,29.84
2023-07-05T13:59:06.358Z,29.90
2023-07-05T14:01:34.650Z,29.91
2023-07-05T14:04:01.907Z,29.90
2023-07-05T14:06:31.897Z,29.87
2023-07-05T14:08:58.871Z,29.89
2023-07-05T14:11:27.741Z,29.86
2023-07-05T14:13:56.614Z,29.59
2023-07-05T14:16:26.089Z,29.50
2023-07-05T14:18:53.173Z,29.49
2023-07-05T14:21:31.248Z,29.59
2023-07-05T14:24:04.334Z,29.70
2023-07-05T14:26:33.858Z,29.86
2023-07-05T14:29:00.928Z,30.05
2023-07-05T14:31:28.114Z,30.13
2023-07-05T14:33:56.764Z,30.15
2023-07-05T14:36:24.176Z,30.10
2023-07-05T14:38:52.606Z,30.03
2023-07-05T14:41:25.028Z,29.96
2023-07-05T14:43:55.196Z,29.62
2023-07-05T14:46:22.941Z,29.52
2023-07-05T14:48:49.966Z,29.50
2023-07-05T14:51:18.220Z,29.44
2023-07-05T14:53:45.787Z,29.47
2023-07-05T14:56:12.782Z,29.53
2023-07-05T14:58:39.749Z,29.43
2023-07-05T15:01:07.979Z,29.29
2023-07-05T15:03:35.535Z,29.30
2023-07-05T15:06:04.460Z,29.36
2023-07-05T15:08:32.888Z,29.43
2023-07-05T15:11:00.216Z,29.41
2023-07-05T15:13:35.145Z,29.31
2023-07-05T15:16:06.543Z,29.13
2023-07-05T15:18:33.928Z,29.07
2023-07-05T15:21:02.478Z,28.99
2023-07-05T15:23:30.047Z,28.84
2023-07-05T15:25:57.179Z,28.73
2023-07-05T15:28:24.645Z,28.69
2023-07-05T15:30:51.771Z,28.66
2023-07-05T15:33:19.014Z,28.57
2023-07-05T15:35:47.514Z,28.50
2023-07-05T15:38:14.457Z,28.46
2023-07-05T15:40:42.172Z,28.35
2023-07-05T15:43:10.932Z,28.26
2023-07-05T15:45:38.001Z,28.23
2023-07-05T15:48:05.636Z,28.11
2023-07-05T15:50:32.711Z,28.04
2023-07-05T15:52:59.926Z,28.06
2023-07-05T15:55:28.417Z,28.06
2023-07-05T15:58:01.416Z,27.95
2023-07-05T16:00:29.485Z,27.81
2023-07-05T16:03:00.274Z,27.77
2023-07-05T16:05:34.947Z,27.68
2023-07-05T16:08:03.413Z,27.68
2023-07-05T16:10:31.453Z,27.66
2023-07-05T16:13:00.756Z,27.53
2023-07-05T16:15:28.739Z,27.43
2023-07-05T16:17:56.242Z,28.01
2023-07-05T16:20:23.352Z,28.49
2023-07-05T16:22:50.567Z,28.56
2023-07-05T16:25:17.568Z,28.54
2023-07-05T16:27:46.775Z,28.45
2023-07-05T16:30:14.210Z,28.25
2023-07-05T16:32:41.688Z,28.09
2023-07-05T16:35:09.247Z,27.94
2023-07-05T16:37:38.241Z,27.87
2023-07-05T16:40:06.239Z,27.83
2023-07-05T16:42:33.888Z,27.83
2023-07-05T16:45:01.268Z,27.78
2023-07-05T16:47:28.660Z,27.59
2023-07-05T16:49:56.244Z,27.50
2023-07-05T16:52:23.451Z,27.42
2023-07-05T16:54:50.424Z,27.40
2023-07-05T16:57:17.588Z,27.45
2023-07-05T16:59:45.106Z,27.42
2023-07-05T17:02:12.806Z,27.41
2023-07-05T17:04:40.275Z,27.45
2023-07-05T17:07:07.318Z,27.42
2023-07-05T17:09:36.192Z,27.32
2023-07-05T17:12:06.902Z,27.28
2023-07-05T17:14:37.442Z,27.21
2023-07-05T17:17:05.754Z,27.11
2023-07-05T17:19:33.744Z,26.98
2023-07-05T17:22:01.365Z,26.86
2023-07-05T17:24:28.537Z,27.25
2023-07-05T17:26:55.516Z,27.67
2023-07-05T17:29:22.655Z,27.70
2023-07-05T17:31:49.778Z,27.53
2023-07-05T17:34:19.619Z,27.34
2023-07-05T17:36:46.763Z,27.15
2023-07-05T17:39:13.886Z,26.94
2023-07-05T17:41:41.415Z,26.75
2023-07-05T17:44:08.705Z,26.60
2023-07-05T17:46:41.722Z,26.48
2023-07-05T17:49:09.179Z,26.38
2023-07-05T17:51:36.210Z,26.22
2023-07-05T17:54:03.420Z,26.71
2023-07-05T17:56:30.599Z,27.14
2023-07-05T17:58:57.695Z,27.15
2023-07-05T18:01:29.240Z,26.97
2023-07-05T18:03:57.302Z,26.75
2023-07-05T18:06:24.429Z,26.53
2023-07-05T18:08:51.797Z,26.33
2023-07-05T18:11:21.950Z,26.16
2023-07-05T18:13:51.416Z,25.92
2023-07-05T18:16:19.192Z,26.34
2023-07-05T18:18:47.271Z,26.80
2023-07-05T18:21:16.617Z,26.82
2023-07-05T18:23:45.016Z,26.65
2023-07-05T18:26:13.506Z,26.43
2023-07-05T18:28:41.182Z,26.22
2023-07-05T18:31:09.834Z,26.00
2023-07-05T18:33:36.943Z,25.76
2023-07-05T18:36:04.696Z,26.23
2023-07-05T18:38:32.942Z,26.73
2023-07-05T18:41:04.843Z,26.80
2023-07-05T18:43:32.255Z,26.61
2023-07-05T18:46:00.718Z,26.35
2023-07-05T18:48:27.919Z,26.05
2023-07-05T18:50:56.440Z,25.75
2023-07-05T18:53:24.941Z,25.53
2023-07-05T18:55:58.731Z,25.26
2023-07-05T18:58:28.162Z,25.82
2023-07-05T19:00:56.895Z,26.39
2023-07-05T19:03:24.641Z,26.46
2023-07-05T19:05:57.969Z,26.31
2023-07-05T19:08:29.106Z,26.07
2023-07-05T19:10:58.758Z,25.84
2023-07-05T19:13:27.121Z,25.61
2023-07-05T19:15:54.398Z,25.36
2023-07-05T19:18:21.905Z,25.09
2023-07-05T19:20:49.835Z,25.59
2023-07-05T19:23:16.901Z,26.16
2023-07-05T19:25:43.988Z,26.23
2023-07-05T19:28:12.278Z,26.08
2023-07-05T19:30:40.050Z,25.83
2023-07-05T19:33:07.482Z,25.59
2023-07-05T19:35:34.659Z,25.37
2023-07-05T19:38:02.373Z,25.11
2023-07-05T19:40:29.612Z,25.56
2023-07-05T19:42:56.692Z,26.10
2023-07-05T19:45:23.739Z,26.15
2023-07-05T19:47:50.728Z,25.94
2023-07-05T19:50:18.862Z,25.65
2023-07-05T19:52:46.411Z,25.35
2023-07-05T19:55:13.874Z,25.09
2023-07-05T19:57:42.280Z,24.88
2023-07-05T20:00:10.052Z,24.65
2023-07-05T20:02:37.173Z,25.14
2023-07-05T20:05:04.711Z,25.69
2023-07-05T20:07:31.975Z,25.75
2023-07-05T20:09:59.402Z,25.58
2023-07-05T20:12:27.748Z,25.32
2023-07-05T20:14:54.770Z,25.06
2023-07-05T20:17:22.282Z,24.81
2023-07-05T20:19:49.785Z,24.53
2023-07-05T20:22:16.801Z,24.92
2023-07-05T20:24:43.899Z,25.41
2023-07-05T20:27:11.158Z,25.42
2023-07-05T20:29:38.633Z,25.21
2023-07-05T20:32:06.098Z,24.96
2023-07-05T20:34:34.082Z,24.73
2023-07-05T20:37:03.799Z,24.49
2023-07-05T20:39:30.816Z,24.21
2023-07-05T20:41:58.566Z,24.69
2023-07-05T20:44:25.626Z,25.26
2023-07-05T20:46:54.475Z,25.32
2023-07-05T20:49:22.948Z,25.12
2023-07-05T20:51:53.109Z,24.86
2023-07-05T20:54:21.174Z,24.59
2023-07-05T20:56:49.000Z,24.30
2023-07-05T20:59:16.129Z,24.01
2023-07-05T21:01:44.944Z,24.49
2023-07-05T21:04:13.615Z,25.03
2023-07-05T21:06:41.127Z,25.06
2023-07-05T21:09:08.188Z,24.89
2023-07-05T21:11:37.573Z,24.66
2023-07-05T21:14:05.276Z,24.37
2023-07-05T21:16:32.402Z,24.09
2023-07-05T21:18:59.842Z,23.82
2023-07-05T21:21:26.868Z,24.33
2023-07-05T21:23:54.091Z,24.90
2023-07-05T21:26:21.136Z,24.92
2023-07-05T21:28:48.247Z,24.71
2023-07-05T21:31:15.708Z,24.42
2023-07-05T21:33:43.150Z,24.16
2023-07-05T21:36:10.390Z,23.88
2023-07-05T21:38:38.959Z,24.25
2023-07-05T21:41:07.043Z,24.75
2023-07-05T21:43:34.129Z,24.79
2023-07-05T21:46:01.654Z,24.57
2023-07-05T21:48:30.166Z,24.28
2023-07-05T21:50:58.557Z,23.97
2023-07-05T21:53:27.021Z,23.67
2023-07-05T21:55:58.476Z,24.13
2023-07-05T21:58:30.148Z,24.68
2023-07-05T22:00:59.198Z,24.71
2023-07-05T22:03:26.695Z,24.52
2023-07-05T22:05:55.294Z,24.25
2023-07-05T22:08:23.321Z,24.00
2023-07-05T22:10:50.546Z,23.70
2023-07-05T22:13:20.613Z,24.09
2023-07-05T22:15:48.029Z,24.61
2023-07-05T22:18:15.788Z,24.64
2023-07-05T22:20:42.807Z,24.45
2023-07-05T22:23:10.508Z,24.20
2023-07-05T22:25:38.160Z,23.94
2023-07-05T22:28:05.990Z,23.67
2023-07-05T22:30:33.469Z,24.14
2023-07-05T22:33:00.428Z,24.68
2023-07-05T22:35:30.835Z,24.73
2023-07-05T22:37:58.066Z,24.53
2023-07-05T22:40:25.254Z,24.26
2023-07-05T22:42:52.457Z,24.00
2023-07-05T22:45:19.463Z,23.71
2023-07-05T22:47:47.592Z,24.13
2023-07-05T22:50:14.834Z,24.64
2023-07-05T22:52:43.384Z,24.67
2023-07-05T22:55:10.922Z,24.45
2023-07-05T22:57:38.107Z,24.16
2023-07-05T23:00:13.170Z,23.91
2023-07-05T23:02:40.615Z,23.63
2023-07-05T23:05:08.189Z,24.15
2023-07-05T23:07:35.142Z,24.68
2023-07-05T23:10:02.255Z,24.70
2023-07-05T23:12:29.738Z,24.50
2023-07-05T23:14:58.244Z,24.23
2023-07-05T23:17:25.633Z,23.95
2023-07-05T23:19:52.889Z,23.66
2023-07-05T23:22:20.142Z,24.09
2023-07-05T23:24:47.939Z,24.60
2023-07-05T23:27:15.479Z,24.61
2023-07-05T23:29:42.781Z,24.38
2023-07-05T23:32:14.234Z,24.10
2023-07-05T23:34:42.020Z,23.81
2023-07-05T23:37:09.052Z,23.53
2023-07-05T23:39:36.861Z,23.97
2023-07-05T23:42:04.405Z,24.47
2023-07-05T23:44:31.696Z,24.48
2023-07-05T23:46:58.961Z,24.27
2023-07-05T23:49:27.674Z,24.01
2023-07-05T23:51:55.645Z,23.73
2023-07-05T23:54:24.625Z,23.43
2023-07-05T23:56:52.163Z,23.88
2023-07-05T23:59:20.391Z,24.40
